createdAt,value
2022-11-29T00:00:09.365Z,-1.82
2022-11-29T00:03:03.191Z,-1.84
2022-11-29T00:05:35.844Z,-1.86
2022-11-29T00:08:05.964Z,-1.89
2022-11-29T00:10:41.172Z,-1.91
2022-11-29T00:13:10.936Z,-1.95
2022-11-29T00:15:40.686Z,-1.98
2022-11-29T00:18:10.425Z,-2.00
2022-11-29T00:20:40.673Z,-2.03
2022-11-29T00:23:10.294Z,-2.07
2022-11-29T00:25:40.177Z,-2.11
2022-11-29T00:28:09.830Z,-2.12
2022-11-29T00:30:39.892Z,-2.13
2022-11-29T00:33:09.574Z,-2.15
2022-11-29T00:35:39.299Z,-2.19
2022-11-29T00:38:08.716Z,-2.21
2022-11-29T00:40:38.477Z,-2.22
2022-11-29T00:43:08.425Z,-2.23
2022-11-29T00:45:37.558Z,-2.25
2022-11-29T00:48:07.412Z,-2.27
2022-11-29T00:50:37.224Z,-2.31
2022-11-29T00:53:07.124Z,-2.32
2022-11-29T00:55:36.912Z,-2.33
2022-11-29T00:58:05.455Z,-2.32
2022-11-29T01:00:34.755Z,-2.35
2022-11-29T01:03:04.811Z,-2.36
2022-11-29T01:05:34.954Z,-2.37
2022-11-29T01:08:03.863Z,-2.37
2022-11-29T01:10:33.007Z,-2.38
2022-11-29T01:13:03.222Z,-2.38
2022-11-29T01:15:33.627Z,-2.38
2022-11-29T01:18:03.423Z,-2.40
2022-11-29T01:20:33.161Z,-2.39
2022-11-29T01:23:03.209Z,-2.39
2022-11-29T01:25:32.966Z,-2.39
2022-11-29T01:28:02.616Z,-2.39
2022-11-29T01:30:32.612Z,-2.40
2022-11-29T01:33:02.722Z,-2.40
2022-11-29T01:35:32.407Z,-2.40
2022-11-29T01:38:00.913Z,-2.42
2022-11-29T01:40:30.637Z,-2.45
2022-11-29T01:43:00.328Z,-2.48
2022-11-29T01:45:29.637Z,-2.49
2022-11-29T01:47:59.345Z,-2.52
2022-11-29T01:50:29.075Z,-2.53
2022-11-29T01:52:59.313Z,-2.57
2022-11-29T01:55:31.772Z,-2.59
2022-11-29T01:58:01.842Z,-2.60
2022-11-29T02:00:31.705Z,-2.62
2022-11-29T02:03:10.652Z,-2.64
2022-11-29T02:05:49.428Z,-2.67
2022-11-29T02:08:31.005Z,-2.68
2022-11-29T02:11:14.565Z,-2.68
2022-11-29T02:14:00.252Z,-2.69
2022-11-29T02:16:58.034Z,-2.71
2022-11-29T02:19:56.030Z,-2.74
2022-11-29T02:22:40.523Z,-2.79
2022-11-29T02:25:38.451Z,-2.86
2022-11-29T02:28:13.838Z,-2.85
2022-11-29T02:30:56.844Z,-2.89
2022-11-29T02:34:13.353Z,-2.90
2022-11-29T02:37:13.871Z,-2.93
2022-11-29T02:40:14.129Z,-2.95
2022-11-29T02:43:13.193Z,-2.91
2022-11-29T02:46:04.117Z,-2.93
2022-11-29T02:49:08.574Z,-2.94
2022-11-29T02:52:08.719Z,-2.97
2022-11-29T02:54:49.775Z,-2.99
2022-11-29T02:58:10.773Z,-3.00
2022-11-29T03:00:52.726Z,-3.05
2022-11-29T03:03:29.023Z,-3.08
2022-11-29T03:06:41.002Z,-3.10
2022-11-29T03:09:11.640Z,-3.13
2022-11-29T03:11:51.195Z,-3.13
2022-11-29T03:14:32.051Z,-3.13
2022-11-29T03:17:09.907Z,-3.15
2022-11-29T03:19:52.852Z,-3.16
2022-11-29T03:22:59.798Z,-3.19
2022-11-29T03:25:52.302Z,-3.23
2022-11-29T03:28:29.853Z,-3.25
2022-11-29T03:30:59.757Z,-3.26
2022-11-29T03:33:56.916Z,-3.31
2022-11-29T03:36:52.029Z,-3.31
2022-11-29T03:39:45.034Z,-3.31
2022-11-29T03:42:29.725Z,-3.30
2022-11-29T03:45:20.108Z,-3.32
2022-11-29T03:47:57.399Z,-3.32
2022-11-29T03:50:54.910Z,-3.34
2022-11-29T03:53:50.515Z,-3.35
2022-11-29T03:56:32.365Z,-3.35
2022-11-29T03:59:15.169Z,-3.35
2022-11-29T04:02:28.879Z,-3.35
2022-11-29T04:05:26.896Z,-3.36
2022-11-29T04:08:21.542Z,-3.39
2022-11-29T04:11:09.471Z,-3.41
2022-11-29T04:13:53.361Z,-3.41
2022-11-29T04:16:32.454Z,-3.42
2022-11-29T04:19:45.166Z,-3.42
2022-11-29T04:22:42.964Z,-3.45
2022-11-29T04:25:30.920Z,-3.45
2022-11-29T04:28:18.967Z,-3.46
2022-11-29T04:31:18.178Z,-3.48
2022-11-29T04:34:26.012Z,-3.49
2022-11-29T04:37:13.089Z,-3.49
2022-11-29T04:40:00.208Z,-3.55
2022-11-29T04:42:51.815Z,-3.56
2022-11-29T04:46:06.530Z,-3.56
2022-11-29T04:48:51.292Z,-3.56
2022-11-29T04:51:40.242Z,-3.54
2022-11-29T04:54:35.889Z,-3.55
2022-11-29T04:57:15.340Z,-3.54
2022-11-29T05:00:16.039Z,-3.57
2022-11-29T05:03:22.707Z,-3.61
2022-11-29T05:06:05.231Z,-3.65
2022-11-29T05:09:10.411Z,-3.65
2022-11-29T05:12:28.629Z,-3.65
2022-11-29T05:15:39.816Z,-3.68
2022-11-29T05:18:54.654Z,-3.69
2022-11-29T05:22:00.725Z,-3.67
2022-11-29T05:24:42.636Z,-3.65
2022-11-29T05:27:23.971Z,-3.65
2022-11-29T05:30:08.480Z,-3.64
2022-11-29T05:32:55.069Z,-3.63
2022-11-29T05:35:53.842Z,-3.65
2022-11-29T05:38:58.487Z,-3.71
2022-11-29T05:41:57.227Z,-3.71
2022-11-29T05:44:36.283Z,-3.71
2022-11-29T05:47:10.449Z,-3.70
2022-11-29T05:50:06.511Z,-3.73
2022-11-29T05:52:47.595Z,-3.76
2022-11-29T05:55:41.787Z,-3.79
2022-11-29T05:58:38.677Z,-3.81
2022-11-29T06:01:19.851Z,-3.83
2022-11-29T06:04:22.752Z,-3.82
2022-11-29T06:07:12.484Z,-3.81
2022-11-29T06:09:51.921Z,-3.77
2022-11-29T06:12:23.856Z,-3.78
2022-11-29T06:15:20.223Z,-3.75
2022-11-29T06:18:31.971Z,-3.72
2022-11-29T06:21:24.951Z,-3.67
2022-11-29T06:24:01.757Z,-3.60
2022-11-29T06:26:48.779Z,-3.54
2022-11-29T06:29:40.517Z,-3.50
2022-11-29T06:32:41.142Z,-3.48
2022-11-29T06:35:47.212Z,-3.41
2022-11-29T06:38:23.542Z,-3.30
2022-11-29T06:41:00.215Z,-3.20
2022-11-29T06:43:33.976Z,-3.10
2022-11-29T06:46:16.558Z,-3.00
2022-11-29T06:49:09.180Z,-2.88
2022-11-29T06:51:52.345Z,-2.80
2022-11-29T06:54:38.246Z,-2.72
2022-11-29T06:57:18.425Z,-2.59
2022-11-29T07:00:12.035Z,-2.43
2022-11-29T07:03:11.557Z,-2.25
2022-11-29T07:05:41.397Z,-2.06
2022-11-29T07:08:23.598Z,-1.92
2022-11-29T07:10:55.883Z,-1.74
2022-11-29T07:13:26.021Z,-1.61
2022-11-29T07:16:12.471Z,-1.50
2022-11-29T07:19:17.190Z,-1.35
2022-11-29T07:22:31.503Z,-1.18
2022-11-29T07:25:29.710Z,-0.95
2022-11-29T07:28:27.278Z,-0.76
2022-11-29T07:31:17.937Z,-0.57
2022-11-29T07:34:34.186Z,-0.43
2022-11-29T07:37:36.552Z,-0.32
2022-11-29T07:40:23.709Z,-0.19
2022-11-29T07:43:08.274Z,-0.02
2022-11-29T07:45:39.726Z,0.23
2022-11-29T07:48:13.394Z,0.47
2022-11-29T07:50:42.049Z,0.73
2022-11-29T07:53:20.635Z,0.87
2022-11-29T07:55:50.690Z,1.01
2022-11-29T07:58:19.610Z,1.17
2022-11-29T08:00:49.702Z,1.29
2022-11-29T08:03:19.390Z,1.37
2022-11-29T08:05:48.629Z,1.48
2022-11-29T08:08:17.980Z,1.59
2022-11-29T08:10:47.567Z,1.74
2022-11-29T08:13:21.143Z,1.88
2022-11-29T08:15:50.841Z,2.02
2022-11-29T08:18:19.730Z,2.19
2022-11-29T08:20:48.231Z,2.35
2022-11-29T08:23:16.695Z,2.51
2022-11-29T08:25:46.380Z,2.67
2022-11-29T08:28:16.512Z,2.81
2022-11-29T08:30:46.722Z,2.97
2022-11-29T08:33:16.522Z,3.16
2022-11-29T08:35:46.411Z,3.44
2022-11-29T08:38:15.722Z,3.70
2022-11-29T08:40:45.317Z,3.91
2022-11-29T08:43:15.353Z,4.07
2022-11-29T08:45:45.362Z,4.21
2022-11-29T08:48:15.060Z,4.34
2022-11-29T08:50:44.920Z,4.52
2022-11-29T08:53:31.995Z,4.69
2022-11-29T08:56:08.485Z,4.75
2022-11-29T08:58:51.727Z,4.76
2022-11-29T09:01:22.290Z,4.80
2022-11-29T09:04:00.567Z,4.87
2022-11-29T09:06:34.711Z,5.00
2022-11-29T09:09:03.885Z,5.11
2022-11-29T09:11:35.648Z,5.17
2022-11-29T09:14:08.001Z,5.24
2022-11-29T09:16:38.902Z,5.27
2022-11-29T09:19:08.970Z,5.44
2022-11-29T09:21:38.696Z,5.57
2022-11-29T09:24:08.301Z,5.66
2022-11-29T09:26:38.485Z,5.76
2022-11-29T09:29:09.445Z,5.80
2022-11-29T09:31:39.492Z,5.91
2022-11-29T09:34:14.126Z,6.02
2022-11-29T09:36:44.599Z,6.14
2022-11-29T09:39:13.166Z,6.26
2022-11-29T09:42:19.991Z,6.32
2022-11-29T09:45:04.362Z,6.44
2022-11-29T09:47:56.821Z,6.59
2022-11-29T09:50:43.601Z,6.73
2022-11-29T09:53:47.526Z,6.86
2022-11-29T09:56:39.028Z,7.00
2022-11-29T09:59:25.213Z,7.10
2022-11-29T10:02:15.938Z,7.28
2022-11-29T10:04:56.515Z,7.47
2022-11-29T10:07:52.128Z,7.56
2022-11-29T10:10:31.365Z,7.59
2022-11-29T10:13:30.122Z,7.57
2022-11-29T10:16:11.248Z,7.71
2022-11-29T10:19:00.752Z,7.92
2022-11-29T10:21:34.766Z,8.01
2022-11-29T10:24:13.762Z,8.01
2022-11-29T10:26:43.875Z,8.05
2022-11-29T10:29:17.199Z,8.17
2022-11-29T10:31:49.783Z,8.26
2022-11-29T10:34:21.725Z,8.28
2022-11-29T10:37:03.017Z,8.32
2022-11-29T10:39:47.466Z,8.35
2022-11-29T10:42:38.965Z,8.44
2022-11-29T10:45:30.304Z,8.48
2022-11-29T10:48:05.604Z,8.55
2022-11-29T10:50:37.889Z,8.55
2022-11-29T10:53:13.825Z,8.58
2022-11-29T10:56:01.622Z,8.62
2022-11-29T10:58:31.419Z,8.67
2022-11-29T11:01:08.020Z,8.75
2022-11-29T11:03:41.736Z,8.78
2022-11-29T11:06:22.462Z,8.76
2022-11-29T11:09:13.118Z,8.74
2022-11-29T11:11:54.620Z,8.71
2022-11-29T11:14:26.970Z,8.77
2022-11-29T11:17:22.258Z,8.83
2022-11-29T11:20:22.592Z,8.89
2022-11-29T11:23:30.202Z,8.87
2022-11-29T11:26:07.085Z,8.82
2022-11-29T11:29:02.002Z,8.81
2022-11-29T11:31:41.244Z,8.81
2022-11-29T11:34:38.601Z,8.78
2022-11-29T11:37:18.051Z,8.78
2022-11-29T11:39:51.740Z,8.72
2022-11-29T11:42:38.850Z,8.70
2022-11-29T11:45:14.184Z,8.63
2022-11-29T11:47:51.841Z,8.59
2022-11-29T11:50:31.787Z,8.52
2022-11-29T11:53:20.225Z,8.53
2022-11-29T11:56:03.269Z,8.53
2022-11-29T11:59:09.578Z,8.44
2022-11-29T12:01:39.841Z,8.32
2022-11-29T12:04:21.811Z,8.33
2022-11-29T12:07:00.841Z,8.38
2022-11-29T12:09:54.019Z,8.42
2022-11-29T12:12:29.647Z,8.52
2022-11-29T12:15:02.084Z,8.60
2022-11-29T12:17:47.927Z,8.70
2022-11-29T12:20:31.290Z,8.85
2022-11-29T12:23:16.694Z,9.04
2022-11-29T12:26:41.110Z,9.16
2022-11-29T12:29:16.653Z,9.28
2022-11-29T12:31:49.494Z,9.36
2022-11-29T12:34:35.963Z,9.46
2022-11-29T12:37:27.162Z,9.61
2022-11-29T12:40:03.698Z,9.79
2022-11-29T12:42:56.127Z,9.92
2022-11-29T12:45:48.399Z,10.03
2022-11-29T12:48:37.107Z,10.14
2022-11-29T12:51:34.263Z,10.16
2022-11-29T12:54:13.204Z,10.17
2022-11-29T12:57:04.914Z,10.17
2022-11-29T13:00:24.475Z,10.18
2022-11-29T13:03:22.026Z,10.13
2022-11-29T13:06:07.925Z,10.18
2022-11-29T13:09:04.057Z,10.16
2022-11-29T13:11:43.382Z,10.15
2022-11-29T13:14:42.819Z,10.19
2022-11-29T13:17:28.653Z,10.21
2022-11-29T13:20:26.061Z,10.18
2022-11-29T13:23:14.570Z,10.19
2022-11-29T13:25:51.002Z,10.21
2022-11-29T13:28:28.823Z,10.26
2022-11-29T13:31:13.508Z,10.31
2022-11-29T13:33:56.401Z,10.34
2022-11-29T13:36:38.284Z,10.32
2022-11-29T13:39:36.482Z,10.31
2022-11-29T13:42:59.190Z,10.23
2022-11-29T13:46:22.092Z,10.03
2022-11-29T13:48:54.084Z,9.81
2022-11-29T13:51:38.206Z,9.65
2022-11-29T13:54:25.808Z,9.44
2022-11-29T13:57:09.520Z,9.22
2022-11-29T13:59:47.105Z,8.94
2022-11-29T14:02:35.822Z,8.73
2022-11-29T14:05:08.178Z,8.55
2022-11-29T14:08:18.028Z,8.38
2022-11-29T14:10:51.092Z,8.14
2022-11-29T14:13:34.694Z,7.98
2022-11-29T14:16:07.642Z,7.84
2022-11-29T14:18:43.836Z,7.80
2022-11-29T14:21:13.613Z,7.71
2022-11-29T14:23:44.644Z,7.55
2022-11-29T14:26:13.244Z,7.34
2022-11-29T14:28:42.712Z,7.22
2022-11-29T14:31:11.435Z,7.20
2022-11-29T14:34:26.230Z,7.16
2022-11-29T14:37:08.215Z,6.90
2022-11-29T14:39:53.276Z,6.71
2022-11-29T14:42:26.952Z,6.61
2022-11-29T14:45:01.791Z,6.51
2022-11-29T14:47:48.210Z,6.45
2022-11-29T14:50:40.096Z,6.39
2022-11-29T14:53:31.209Z,6.26
2022-11-29T14:56:32.076Z,6.16
2022-11-29T14:59:38.642Z,6.02
2022-11-29T15:02:19.014Z,5.78
2022-11-29T15:04:52.097Z,5.59
2022-11-29T15:07:32.164Z,5.43
2022-11-29T15:10:14.299Z,5.23
2022-11-29T15:12:43.308Z,5.05
2022-11-29T15:15:43.947Z,4.85
2022-11-29T15:18:35.757Z,4.60
2022-11-29T15:21:33.085Z,4.23
2022-11-29T15:24:15.321Z,4.00
2022-11-29T15:27:01.721Z,3.87
2022-11-29T15:29:33.156Z,3.71
2022-11-29T15:32:06.282Z,3.60
2022-11-29T15:34:43.756Z,3.47
2022-11-29T15:37:36.886Z,3.34
2022-11-29T15:40:21.750Z,3.12
2022-11-29T15:42:58.870Z,2.96
2022-11-29T15:45:39.092Z,2.88
2022-11-29T15:48:16.324Z,2.81
2022-11-29T15:51:11.577Z,2.70
2022-11-29T15:53:49.394Z,2.57
2022-11-29T15:56:38.839Z,2.49
2022-11-29T15:59:44.896Z,2.38
2022-11-29T16:02:28.219Z,2.27
2022-11-29T16:05:04.053Z,2.18
2022-11-29T16:07:35.487Z,2.09
2022-11-29T16:10:20.326Z,2.02
2022-11-29T16:13:01.042Z,1.94
2022-11-29T16:15:39.141Z,1.85
2022-11-29T16:18:17.704Z,1.78
2022-11-29T16:21:01.255Z,1.70
2022-11-29T16:23:40.682Z,1.65
2022-11-29T16:26:23.171Z,1.62
2022-11-29T16:28:58.226Z,1.56
2022-11-29T16:31:38.578Z,1.55
2022-11-29T16:34:14.486Z,1.52
2022-11-29T16:36:44.288Z,1.48
2022-11-29T16:39:24.316Z,1.43
2022-11-29T16:42:10.290Z,1.38
2022-11-29T16:44:47.274Z,1.32
2022-11-29T16:47:23.137Z,1.28
2022-11-29T16:50:15.324Z,1.25
2022-11-29T16:52:45.348Z,1.23
2022-11-29T16:55:17.348Z,1.23
2022-11-29T16:57:48.291Z,1.21
2022-11-29T17:00:30.949Z,1.18
2022-11-29T17:03:01.105Z,1.16
2022-11-29T17:05:31.448Z,1.12
2022-11-29T17:08:01.557Z,1.09
2022-11-29T17:10:32.970Z,1.04
2022-11-29T17:13:04.850Z,1.01
2022-11-29T17:15:35.056Z,0.97
2022-11-29T17:18:05.104Z,0.93
2022-11-29T17:20:35.212Z,0.87
2022-11-29T17:23:05.035Z,0.79
2022-11-29T17:25:35.197Z,0.73
2022-11-29T17:28:05.233Z,0.67
2022-11-29T17:30:34.963Z,0.62
2022-11-29T17:33:04.433Z,0.57
2022-11-29T17:35:35.979Z,0.51
2022-11-29T17:38:05.770Z,0.46
2022-11-29T17:40:34.383Z,0.42
2022-11-29T17:43:04.193Z,0.38
2022-11-29T17:45:34.351Z,0.36
2022-11-29T17:48:04.207Z,0.34
2022-11-29T17:50:34.298Z,0.32
2022-11-29T17:53:04.395Z,0.28
2022-11-29T17:55:34.462Z,0.19
2022-11-29T17:58:04.678Z,0.14
2022-11-29T18:00:34.795Z,0.07
2022-11-29T18:03:04.820Z,0.01
2022-11-29T18:05:35.046Z,-0.07
2022-11-29T18:08:06.186Z,-0.08
2022-11-29T18:10:36.736Z,-0.09
2022-11-29T18:13:05.234Z,-0.12
2022-11-29T18:15:35.131Z,-0.18
2022-11-29T18:18:05.286Z,-0.27
2022-11-29T18:20:35.263Z,-0.31
2022-11-29T18:23:08.070Z,-0.35
2022-11-29T18:25:39.791Z,-0.40
2022-11-29T18:28:11.624Z,-0.45
2022-11-29T18:30:41.414Z,-0.49
2022-11-29T18:33:11.148Z,-0.54
2022-11-29T18:35:39.647Z,-0.59
2022-11-29T18:38:16.698Z,-0.61
2022-11-29T18:40:47.381Z,-0.70
2022-11-29T18:43:16.457Z,-0.81
2022-11-29T18:45:46.770Z,-0.89
2022-11-29T18:48:16.242Z,-0.91
2022-11-29T18:50:46.201Z,-0.91
2022-11-29T18:53:16.289Z,-0.92
2022-11-29T18:55:46.318Z,-0.94
2022-11-29T18:58:16.429Z,-0.97
2022-11-29T19:00:45.721Z,-1.00
2022-11-29T19:03:15.723Z,-1.02
2022-11-29T19:05:54.649Z,-1.03
2022-11-29T19:08:25.820Z,-1.06
2022-11-29T19:10:55.710Z,-1.07
2022-11-29T19:13:25.389Z,-1.09
2022-11-29T19:15:56.289Z,-1.17
2022-11-29T19:18:25.980Z,-1.22
2022-11-29T19:21:04.682Z,-1.23
2022-11-29T19:23:35.001Z,-1.24
2022-11-29T19:26:09.076Z,-1.23
2022-11-29T19:28:40.906Z,-1.22
2022-11-29T19:31:12.503Z,-1.21
2022-11-29T19:33:43.996Z,-1.22
2022-11-29T19:36:19.634Z,-1.21
2022-11-29T19:38:53.804Z,-1.22
2022-11-29T19:41:29.491Z,-1.23
2022-11-29T19:44:04.685Z,-1.24
2022-11-29T19:46:40.490Z,-1.33
2022-11-29T19:49:11.235Z,-1.37
2022-11-29T19:51:41.242Z,-1.39
2022-11-29T19:54:12.196Z,-1.42
2022-11-29T19:56:42.513Z,-1.42
2022-11-29T19:59:12.156Z,-1.40
2022-11-29T20:01:43.021Z,-1.43
2022-11-29T20:04:14.216Z,-1.48
2022-11-29T20:06:44.740Z,-1.56
2022-11-29T20:09:14.508Z,-1.59
2022-11-29T20:11:44.248Z,-1.61
2022-11-29T20:14:15.035Z,-1.66
2022-11-29T20:16:43.955Z,-1.69
2022-11-29T20:19:16.552Z,-1.68
2022-11-29T20:21:49.143Z,-1.69
2022-11-29T20:24:19.932Z,-1.70
2022-11-29T20:26:49.983Z,-1.70
2022-11-29T20:29:21.863Z,-1.70
2022-11-29T20:31:51.600Z,-1.72
2022-11-29T20:34:21.935Z,-1.74
2022-11-29T20:37:35.108Z,-1.77
2022-11-29T20:40:15.167Z,-1.83
2022-11-29T20:42:58.885Z,-1.85
2022-11-29T20:45:28.996Z,-1.87
2022-11-29T20:48:13.447Z,-1.89
2022-11-29T20:50:45.340Z,-1.91
2022-11-29T20:53:16.730Z,-1.93
2022-11-29T20:55:48.482Z,-1.97
2022-11-29T20:58:19.747Z,-2.01
2022-11-29T21:00:49.886Z,-2.03
2022-11-29T21:03:19.975Z,-2.04
2022-11-29T21:05:50.836Z,-2.06
2022-11-29T21:08:24.695Z,-2.09
2022-11-29T21:10:55.645Z,-2.12
2022-11-29T21:13:25.658Z,-2.14
2022-11-29T21:15:56.093Z,-2.17
2022-11-29T21:18:30.697Z,-2.22
2022-11-29T21:21:29.958Z,-2.25
2022-11-29T21:24:07.015Z,-2.26
2022-11-29T21:26:45.148Z,-2.25
2022-11-29T21:29:15.970Z,-2.25
2022-11-29T21:31:47.515Z,-2.30
2022-11-29T21:34:17.603Z,-2.30
2022-11-29T21:36:59.214Z,-2.31
2022-11-29T21:39:34.053Z,-2.35
2022-11-29T21:42:03.910Z,-2.36
2022-11-29T21:44:33.791Z,-2.36
2022-11-29T21:47:03.490Z,-2.35
2022-11-29T21:49:33.567Z,-2.34
2022-11-29T21:52:03.650Z,-2.34
2022-11-29T21:54:33.324Z,-2.33
2022-11-29T21:57:02.613Z,-2.34
2022-11-29T21:59:33.937Z,-2.37
2022-11-29T22:02:02.551Z,-2.37
2022-11-29T22:04:32.324Z,-2.36
2022-11-29T22:07:02.034Z,-2.36
2022-11-29T22:09:31.993Z,-2.37
2022-11-29T22:12:14.615Z,-2.41
2022-11-29T22:14:51.259Z,-2.44
2022-11-29T22:17:21.268Z,-2.46
2022-11-29T22:19:51.220Z,-2.48
2022-11-29T22:22:21.086Z,-2.52
2022-11-29T22:24:50.740Z,-2.54
2022-11-29T22:27:21.328Z,-2.55
2022-11-29T22:29:51.347Z,-2.60
2022-11-29T22:32:21.099Z,-2.63
2022-11-29T22:34:51.189Z,-2.67
2022-11-29T22:37:20.768Z,-2.71
2022-11-29T22:39:50.437Z,-2.76
2022-11-29T22:42:19.073Z,-2.77
2022-11-29T22:44:48.325Z,-2.79
2022-11-29T22:47:20.197Z,-2.83
2022-11-29T22:49:51.806Z,-2.84
2022-11-29T22:52:22.369Z,-2.85
2022-11-29T22:54:52.346Z,-2.87
2022-11-29T22:57:22.051Z,-2.91
2022-11-29T22:59:52.107Z,-2.93
2022-11-29T23:02:21.854Z,-2.93
2022-11-29T23:04:51.945Z,-2.92
2022-11-29T23:07:22.014Z,-2.90
2022-11-29T23:09:52.075Z,-2.91
2022-11-29T23:12:21.108Z,-2.91
2022-11-29T23:14:56.132Z,-2.89
2022-11-29T23:17:28.027Z,-2.89
2022-11-29T23:19:58.059Z,-2.92
2022-11-29T23:22:28.042Z,-2.94
2022-11-29T23:24:58.142Z,-2.95
2022-11-29T23:27:27.600Z,-2.96
2022-11-29T23:29:59.647Z,-2.97
2022-11-29T23:32:30.542Z,-2.98
2022-11-29T23:35:00.294Z,-2.99
2022-11-29T23:37:30.230Z,-3.01
2022-11-29T23:40:00.303Z,-3.03
2022-11-29T23:42:30.274Z,-3.05
2022-11-29T23:44:59.888Z,-3.06
2022-11-29T23:47:29.684Z,-3.04
2022-11-29T23:49:59.706Z,-3.04
2022-11-29T23:52:29.777Z,-3.03
2022-11-29T23:54:58.212Z,-3.05
2022-11-29T23:57:31.272Z,-3.06
